createdAt,value
2018-06-14T00:02:04.648Z,97394.73
2018-06-14T00:04:33.601Z,97389.15
2018-06-14T00:07:02.420Z,97387.70
2018-06-14T00:09:31.176Z,97384.66
2018-06-14T00:12:00.168Z,97382.59
2018-06-14T00:14:28.993Z,97385.22
2018-06-14T00:16:57.750Z,97381.75
2018-06-14T00:19:26.838Z,97386.13
2018-06-14T00:21:55.669Z,97380.48
2018-06-14T00:24:24.697Z,97380.56
2018-06-14T00:26:53.636Z,97373.52
2018-06-14T00:29:22.453Z,97380.11
2018-06-14T00:31:51.320Z,97375.25
2018-06-14T00:34:20.073Z,97373.97
2018-06-14T00:36:49.029Z,97371.60
2018-06-14T00:39:17.751Z,97363.22
2018-06-14T00:41:46.657Z,97376.36
2018-06-14T00:44:15.360Z,97370.06
2018-06-14T00:46:44.148Z,97366.94
2018-06-14T00:49:13.553Z,97362.95
2018-06-14T00:51:42.464Z,97371.16
2018-06-14T00:54:11.231Z,97365.50
2018-06-14T00:56:51.606Z,97370.51
2018-06-14T00:59:20.656Z,97365.02
2018-06-14T01:01:49.964Z,97369.86
2018-06-14T01:04:18.969Z,97367.88
2018-06-14T01:06:48.145Z,97367.88
2018-06-14T01:09:16.828Z,97375.71
2018-06-14T01:11:45.652Z,97353.34
2018-06-14T01:14:14.647Z,97363.48
2018-06-14T01:16:43.405Z,97359.09
2018-06-14T01:19:12.603Z,97358.38
2018-06-14T01:21:41.485Z,97363.03
2018-06-14T01:24:10.376Z,97368.42
2018-06-14T01:26:39.199Z,97366.97
2018-06-14T01:29:07.956Z,97375.17
2018-06-14T01:31:37.033Z,97370.23
2018-06-14T01:34:05.842Z,97361.91
2018-06-14T01:36:34.661Z,97366.05
2018-06-14T01:39:03.720Z,97363.67
2018-06-14T01:41:32.521Z,97354.36
2018-06-14T01:44:01.517Z,97348.58
2018-06-14T01:46:30.345Z,97355.53
2018-06-14T01:48:59.100Z,97358.02
2018-06-14T01:51:27.916Z,97351.52
2018-06-14T01:53:56.605Z,97345.48
2018-06-14T01:56:25.654Z,97347.59
2018-06-14T01:58:54.376Z,97335.62
2018-06-14T02:01:23.132Z,97344.47
2018-06-14T02:03:52.010Z,97345.11
2018-06-14T02:06:20.821Z,97350.59
2018-06-14T02:08:49.639Z,97357.72
2018-06-14T02:11:18.336Z,97352.05
2018-06-14T02:13:47.012Z,97351.52
2018-06-14T02:16:15.713Z,97350.59
2018-06-14T02:18:44.392Z,97349.16
2018-06-14T02:21:13.152Z,97351.88
2018-06-14T02:23:41.808Z,97352.60
2018-06-14T02:26:10.500Z,97347.65
2018-06-14T02:28:39.220Z,97341.08
2018-06-14T02:31:08.002Z,97346.20
2018-06-14T02:33:36.957Z,97349.83
2018-06-14T02:36:06.118Z,97349.30
2018-06-14T02:38:34.840Z,97344.18
2018-06-14T02:41:03.599Z,97343.75
2018-06-14T02:43:32.307Z,97335.70
2018-06-14T02:46:01.209Z,97331.69
2018-06-14T02:48:29.949Z,97338.72
2018-06-14T02:50:58.677Z,97343.74
2018-06-14T02:53:27.385Z,97342.44
2018-06-14T02:55:56.113Z,97347.75
2018-06-14T02:58:24.849Z,97342.23
2018-06-14T03:00:53.682Z,97347.53
2018-06-14T03:03:22.361Z,97342.89
2018-06-14T03:05:51.127Z,97351.39
2018-06-14T03:08:19.881Z,97347.93
2018-06-14T03:10:48.710Z,97343.36
2018-06-14T03:13:17.417Z,97350.20
2018-06-14T03:15:46.101Z,97343.64
2018-06-14T03:18:14.816Z,97348.37
2018-06-14T03:20:43.484Z,97345.65
2018-06-14T03:23:12.560Z,97340.81
2018-06-14T03:25:41.261Z,97335.88
2018-06-14T03:28:09.952Z,97342.82
2018-06-14T03:30:38.721Z,97344.72
2018-06-14T03:33:07.432Z,97341.34
2018-06-14T03:35:36.147Z,97342.80
2018-06-14T03:38:04.885Z,97342.59
2018-06-14T03:40:33.625Z,97346.83
2018-06-14T03:43:02.409Z,97349.73
2018-06-14T03:45:31.111Z,97345.38
2018-06-14T03:47:59.928Z,97355.59
2018-06-14T03:50:28.605Z,97351.50
2018-06-14T03:52:57.308Z,97354.71
2018-06-14T03:55:26.025Z,97343.01
2018-06-14T03:57:54.705Z,97355.24
2018-06-14T04:00:23.467Z,97351.13
2018-06-14T04:02:52.184Z,97359.92
2018-06-14T04:05:20.931Z,97359.42
2018-06-14T04:07:49.648Z,97362.27
2018-06-14T04:10:18.422Z,97363.30
2018-06-14T04:12:47.373Z,97365.02
2018-06-14T04:15:16.040Z,97361.38
2018-06-14T04:17:48.960Z,97362.56
2018-06-14T04:20:17.728Z,97365.59
2018-06-14T04:22:46.518Z,97361.73
2018-06-14T04:25:15.330Z,97356.55
2018-06-14T04:27:44.085Z,97356.06
2018-06-14T04:30:13.173Z,97357.54
2018-06-14T04:32:41.977Z,97360.89
2018-06-14T04:35:10.813Z,97354.42
2018-06-14T04:37:41.813Z,97352.51
2018-06-14T04:40:11.104Z,97349.39
2018-06-14T04:42:40.312Z,97354.16
2018-06-14T04:45:09.133Z,97360.45
2018-06-14T04:47:38.032Z,97363.80
2018-06-14T04:50:06.904Z,97356.69
2018-06-14T04:52:35.621Z,97362.25
2018-06-14T04:55:04.529Z,97359.91
2018-06-14T04:57:33.233Z,97359.72
2018-06-14T05:00:02.124Z,97363.36
2018-06-14T05:02:31.070Z,97359.77
2018-06-14T05:04:59.968Z,97365.78
2018-06-14T05:07:28.720Z,97362.73
2018-06-14T05:09:57.512Z,97361.06
2018-06-14T05:12:26.275Z,97359.30
2018-06-14T05:14:55.052Z,97359.80
2018-06-14T05:17:23.876Z,97363.73
2018-06-14T05:19:52.641Z,97368.45
2018-06-14T05:22:21.569Z,97369.93
2018-06-14T05:24:50.448Z,97362.66
2018-06-14T05:27:19.304Z,97368.41
2018-06-14T05:29:48.307Z,97371.45
2018-06-14T05:32:17.077Z,97372.11
2018-06-14T05:34:46.017Z,97368.64
2018-06-14T05:37:14.792Z,97366.00
2018-06-14T05:39:43.500Z,97369.77
2018-06-14T05:42:12.365Z,97369.11
2018-06-14T05:44:41.155Z,97374.58
2018-06-14T05:47:09.869Z,97372.59
2018-06-14T05:49:38.584Z,97374.16
2018-06-14T05:52:07.284Z,97380.99
2018-06-14T05:54:36.273Z,97382.57
2018-06-14T05:57:04.969Z,97382.11
2018-06-14T05:59:33.776Z,97383.88
2018-06-14T06:02:02.589Z,97380.48
2018-06-14T06:04:31.533Z,97385.14
2018-06-14T06:07:00.545Z,97386.21
2018-06-14T06:09:29.426Z,97385.45
2018-06-14T06:11:58.305Z,97379.09
2018-06-14T06:14:27.029Z,97376.44
2018-06-14T06:16:55.782Z,97373.10
2018-06-14T06:19:24.980Z,97376.74
2018-06-14T06:21:53.786Z,97368.44
2018-06-14T06:24:22.455Z,97375.30
2018-06-14T06:26:51.171Z,97365.95
2018-06-14T06:29:19.925Z,97370.16
2018-06-14T06:31:48.925Z,97370.85
2018-06-14T06:34:17.608Z,97369.05
2018-06-14T06:36:46.332Z,97371.25
2018-06-14T06:39:15.022Z,97378.19
2018-06-14T06:41:43.708Z,97371.94
2018-06-14T06:44:12.552Z,97377.04
2018-06-14T06:46:41.236Z,97373.75
2018-06-14T06:49:09.921Z,97370.94
2018-06-14T06:51:38.675Z,97366.80
2018-06-14T06:54:07.361Z,97379.63
2018-06-14T06:56:36.132Z,97371.67
2018-06-14T06:59:04.892Z,97363.45
2018-06-14T07:01:33.568Z,97372.61
2018-06-14T07:04:02.296Z,97366.74
2018-06-14T07:06:31.060Z,97361.30
2018-06-14T07:09:00.132Z,97365.28
2018-06-14T07:11:28.934Z,97367.66
2018-06-14T07:13:57.700Z,97365.41
2018-06-14T07:16:26.552Z,97362.89
2018-06-14T07:18:55.312Z,97362.48
2018-06-14T07:21:24.861Z,97356.28
2018-06-14T07:23:53.725Z,97359.21
2018-06-14T07:26:22.669Z,97349.95
2018-06-14T07:28:51.484Z,97352.27
2018-06-14T07:31:20.173Z,97356.20
2018-06-14T07:33:49.141Z,97355.64
2018-06-14T07:36:18.056Z,97357.52
2018-06-14T07:38:46.825Z,97369.16
2018-06-14T07:41:15.745Z,97375.52
2018-06-14T07:43:44.444Z,97375.99
2018-06-14T07:46:13.280Z,97377.86
2018-06-14T07:48:41.971Z,97374.22
2018-06-14T07:51:10.645Z,97367.27
2018-06-14T07:53:39.444Z,97373.01
2018-06-14T07:56:08.157Z,97374.91
2018-06-14T07:58:37.053Z,97380.38
2018-06-14T08:01:05.816Z,97384.06
2018-06-14T08:03:34.600Z,97382.64
2018-06-14T08:06:03.524Z,97381.59
2018-06-14T08:08:32.284Z,97387.63
2018-06-14T08:11:01.100Z,97377.38
2018-06-14T08:13:30.044Z,97375.98
2018-06-14T08:15:58.842Z,97371.32
2018-06-14T08:18:27.696Z,97373.62
2018-06-14T08:20:56.834Z,97375.33
2018-06-14T08:23:26.044Z,97376.63
2018-06-14T08:25:54.849Z,97380.65
2018-06-14T08:28:23.705Z,97378.98
2018-06-14T08:30:52.608Z,97378.28
2018-06-14T08:33:21.517Z,97381.41
2018-06-14T08:35:50.421Z,97382.62
2018-06-14T08:38:19.165Z,97375.84
2018-06-14T08:40:48.065Z,97369.99
2018-06-14T08:43:16.881Z,97376.18
2018-06-14T08:45:45.777Z,97372.42
2018-06-14T08:48:14.833Z,97369.39
2018-06-14T08:50:43.619Z,97372.34
2018-06-14T08:53:12.388Z,97374.29
2018-06-14T08:55:41.120Z,97370.71
2018-06-14T08:58:09.816Z,97365.89
2018-06-14T09:00:38.662Z,97367.94
2018-06-14T09:03:07.356Z,97374.27
2018-06-14T09:05:36.040Z,97372.83
2018-06-14T09:08:04.785Z,97374.84
2018-06-14T09:10:33.616Z,97374.30
2018-06-14T09:13:02.548Z,97377.66
2018-06-14T09:15:31.325Z,97381.69
2018-06-14T09:18:00.180Z,97387.05
2018-06-14T09:20:29.004Z,97377.48
2018-06-14T09:22:57.817Z,97385.86
2018-06-14T09:25:26.692Z,97381.18
2018-06-14T09:27:55.364Z,97375.39
2018-06-14T09:30:24.566Z,97373.14
2018-06-14T09:32:53.376Z,97386.23
2018-06-14T09:35:22.209Z,97385.56
2018-06-14T09:37:51.080Z,97379.83
2018-06-14T09:40:19.789Z,97375.53
2018-06-14T09:42:48.597Z,97377.05
2018-06-14T09:45:17.425Z,97379.70
2018-06-14T09:47:46.156Z,97370.00
2018-06-14T09:50:15.377Z,97370.19
2018-06-14T09:52:44.040Z,97375.00
2018-06-14T09:55:13.928Z,97376.39
2018-06-14T09:57:42.696Z,97377.20
2018-06-14T10:00:11.620Z,97371.25
2018-06-14T10:02:41.291Z,97375.29
2018-06-14T10:05:10.029Z,97371.64
2018-06-14T10:07:38.836Z,97370.38
2018-06-14T10:10:07.613Z,97369.48
2018-06-14T10:12:37.453Z,97373.47
2018-06-14T10:15:06.726Z,97369.92
2018-06-14T10:17:35.541Z,97368.89
2018-06-14T10:20:04.413Z,97370.23
2018-06-14T10:22:33.215Z,97367.98
2018-06-14T10:25:01.982Z,97372.52
2018-06-14T10:27:30.975Z,97371.86
2018-06-14T10:29:59.744Z,97372.44
2018-06-14T10:32:28.434Z,97370.72
2018-06-14T10:34:57.153Z,97361.11
2018-06-14T10:37:25.876Z,97359.11
2018-06-14T10:39:54.764Z,97360.62
2018-06-14T10:42:23.432Z,97367.31
2018-06-14T10:44:52.132Z,97360.30
2018-06-14T10:47:20.848Z,97358.89
2018-06-14T10:49:49.544Z,97355.73
2018-06-14T10:52:18.316Z,97358.97
2018-06-14T10:54:47.013Z,97360.16
2018-06-14T10:57:15.701Z,97351.25
2018-06-14T10:59:44.404Z,97347.77
2018-06-14T11:02:13.077Z,97353.30
2018-06-14T11:04:41.896Z,97350.83
2018-06-14T11:07:10.568Z,97352.81
2018-06-14T11:09:39.441Z,97353.22
2018-06-14T11:12:08.385Z,97348.30
2018-06-14T11:14:37.340Z,97350.63
2018-06-14T11:17:06.433Z,97352.17
2018-06-14T11:19:35.192Z,97344.21
2018-06-14T11:22:04.302Z,97342.02
2018-06-14T11:24:33.008Z,97341.02
2018-06-14T11:27:01.681Z,97342.53
2018-06-14T11:29:30.571Z,97348.23
2018-06-14T11:31:59.661Z,97342.19
2018-06-14T11:34:28.337Z,97345.34
2018-06-14T11:36:57.272Z,97340.76
2018-06-14T11:39:26.026Z,97338.83
2018-06-14T11:41:55.125Z,97336.83
2018-06-14T11:44:23.800Z,97339.41
2018-06-14T11:46:52.569Z,97334.19
2018-06-14T11:49:21.318Z,97334.35
2018-06-14T11:51:50.103Z,97326.17
2018-06-14T11:54:18.882Z,97332.68
2018-06-14T11:56:47.544Z,97328.36
2018-06-14T11:59:16.442Z,97322.20
2018-06-14T12:01:45.168Z,97325.30
2018-06-14T12:04:13.941Z,97317.24
2018-06-14T12:06:42.740Z,97317.24
2018-06-14T12:09:11.430Z,97321.48
2018-06-14T12:11:40.165Z,97313.77
2018-06-14T12:14:08.917Z,97313.62
2018-06-14T12:16:37.741Z,97312.83
2018-06-14T12:19:06.845Z,97314.39
2018-06-14T12:21:35.731Z,97306.89
2018-06-14T12:24:04.636Z,97303.02
2018-06-14T12:26:33.442Z,97304.47
2018-06-14T12:29:02.303Z,97304.06
2018-06-14T12:31:31.297Z,97304.96
2018-06-14T12:34:00.077Z,97299.80
2018-06-14T12:36:28.769Z,97298.88
2018-06-14T12:38:57.580Z,97293.45
2018-06-14T12:41:26.261Z,97292.03
2018-06-14T12:43:55.441Z,97298.98
2018-06-14T12:46:24.433Z,97299.39
2018-06-14T12:48:53.328Z,97293.59
2018-06-14T12:51:22.127Z,97293.34
2018-06-14T12:53:51.011Z,97291.95
2018-06-14T12:56:19.767Z,97288.95
2018-06-14T12:58:48.568Z,97292.91
2018-06-14T13:01:17.267Z,97288.02
2018-06-14T13:03:46.085Z,97278.70
2018-06-14T13:06:14.936Z,97275.82
2018-06-14T13:08:44.168Z,97274.75
2018-06-14T13:11:12.908Z,97273.15
2018-06-14T13:13:41.611Z,97271.22
2018-06-14T13:16:10.338Z,97269.23
2018-06-14T13:18:39.185Z,97272.64
2018-06-14T13:21:08.215Z,97271.08
2018-06-14T13:23:37.157Z,97268.02
2018-06-14T13:26:06.015Z,97260.81
2018-06-14T13:28:34.896Z,97266.48
2018-06-14T13:31:04.268Z,97261.42
2018-06-14T13:33:33.264Z,97263.92
2018-06-14T13:36:02.098Z,97259.25
2018-06-14T13:38:35.050Z,97257.44
2018-06-14T13:41:03.825Z,97254.05
2018-06-14T13:43:32.652Z,97253.83
2018-06-14T13:46:01.549Z,97256.57
2018-06-14T13:48:30.400Z,97254.45
2018-06-14T13:50:59.376Z,97255.59
2018-06-14T13:53:28.325Z,97251.75
2018-06-14T13:55:57.061Z,97254.97
2018-06-14T13:58:25.873Z,97251.46
2018-06-14T14:00:54.975Z,97247.28
2018-06-14T14:03:31.115Z,97243.07
2018-06-14T14:05:59.999Z,97243.27
2018-06-14T14:08:29.245Z,97247.91
2018-06-14T14:10:58.208Z,97247.03
2018-06-14T14:13:26.962Z,97236.08
2018-06-14T14:15:56.114Z,97229.25
2018-06-14T14:18:31.816Z,97224.90
2018-06-14T14:23:40.252Z,97222.64
2018-06-14T14:26:09.073Z,97225.83
2018-06-14T14:28:49.096Z,97225.76
2018-06-14T14:31:18.002Z,97227.06
2018-06-14T14:33:46.657Z,97227.27
2018-06-14T14:36:16.483Z,97220.10
2018-06-14T14:38:45.331Z,97219.31
2018-06-14T14:41:14.153Z,97216.46
2018-06-14T14:43:42.987Z,97216.88
2018-06-14T14:46:11.777Z,97211.93
2018-06-14T14:48:40.469Z,97208.12
2018-06-14T14:51:09.239Z,97202.45
2018-06-14T14:53:38.322Z,97211.33
2018-06-14T14:56:07.325Z,97204.38
2018-06-14T14:58:36.136Z,97201.22
2018-06-14T15:01:04.865Z,97206.49
2018-06-14T15:03:33.793Z,97199.05
2018-06-14T15:06:02.604Z,97196.41
2018-06-14T15:08:31.552Z,97197.92
2018-06-14T15:11:00.329Z,97196.87
2018-06-14T15:13:29.233Z,97198.74
2018-06-14T15:15:58.265Z,97197.50
2018-06-14T15:18:27.152Z,97195.00
2018-06-14T15:20:56.216Z,97192.64
2018-06-14T15:23:24.993Z,97201.30
2018-06-14T15:25:53.793Z,97200.84
2018-06-14T15:28:22.638Z,97191.38
2018-06-14T15:30:51.665Z,97192.66
2018-06-14T15:33:20.761Z,97191.66
2018-06-14T15:35:49.552Z,97195.78
2018-06-14T15:38:18.327Z,97193.27
2018-06-14T15:40:47.047Z,97188.78
2018-06-14T15:43:15.801Z,97187.92
2018-06-14T15:45:44.800Z,97187.49
2018-06-14T15:48:14.013Z,97181.23
2018-06-14T15:50:42.872Z,97184.23
2018-06-14T15:53:11.712Z,97185.38
2018-06-14T15:56:08.621Z,97187.26
2018-06-14T15:58:37.749Z,97183.75
2018-06-14T16:01:07.117Z,97179.44
2018-06-14T16:03:36.022Z,97185.73
2018-06-14T16:06:05.176Z,97181.33
2018-06-14T16:08:34.108Z,97178.77
2018-06-14T16:11:02.799Z,97178.51
2018-06-14T16:13:31.856Z,97186.36
2018-06-14T16:16:00.832Z,97188.37
2018-06-14T16:18:29.505Z,97186.42
2018-06-14T16:20:58.556Z,97190.68
2018-06-14T16:23:27.337Z,97187.44
2018-06-14T16:25:56.382Z,97193.09
2018-06-14T16:28:25.176Z,97190.95
2018-06-14T16:30:53.915Z,97187.78
2018-06-14T16:33:23.192Z,97186.80
2018-06-14T16:35:52.001Z,97193.17
2018-06-14T16:38:20.860Z,97195.47
2018-06-14T16:40:49.609Z,97199.77
2018-06-14T16:43:18.316Z,97199.52
2018-06-14T16:45:47.471Z,97193.55
2018-06-14T16:48:16.276Z,97196.09
2018-06-14T16:50:45.045Z,97197.22
2018-06-14T16:53:13.877Z,97201.64
2018-06-14T16:55:42.816Z,97192.86
2018-06-14T16:58:11.812Z,97195.92
2018-06-14T17:00:40.496Z,97200.73
2018-06-14T17:03:09.386Z,97202.13
2018-06-14T17:05:38.209Z,97205.73
2018-06-14T17:08:07.068Z,97206.09
2018-06-14T17:10:35.989Z,97206.17
2018-06-14T17:13:04.841Z,97205.88
2018-06-14T17:15:33.765Z,97206.30
2018-06-14T17:18:02.851Z,97204.25
2018-06-14T17:20:31.530Z,97194.68
2018-06-14T17:23:00.504Z,97196.56
2018-06-14T17:25:29.183Z,97193.72
2018-06-14T17:27:58.041Z,97198.27
2018-06-14T17:30:26.753Z,97195.75
2018-06-14T17:32:55.423Z,97204.66
2018-06-14T17:35:24.031Z,97200.45
2018-06-14T17:37:52.893Z,97200.97
2018-06-14T17:40:21.620Z,97202.35
2018-06-14T17:42:50.268Z,97203.34
2018-06-14T17:45:18.884Z,97199.09
2018-06-14T17:47:47.860Z,97203.11
2018-06-14T17:50:16.840Z,97204.31
2018-06-14T17:52:45.606Z,97215.83
2018-06-14T17:55:14.652Z,97220.84
2018-06-14T17:57:43.245Z,97223.47
2018-06-14T18:00:12.024Z,97228.08
2018-06-14T18:02:40.718Z,97232.77
2018-06-14T18:05:09.996Z,97235.16
2018-06-14T18:07:38.988Z,97243.43
2018-06-14T18:10:07.340Z,97248.02
2018-06-14T18:12:36.110Z,97247.70
2018-06-14T18:15:04.802Z,97245.38
2018-06-14T18:17:33.376Z,97244.98
2018-06-14T18:20:01.980Z,97257.79
2018-06-14T18:22:30.776Z,97246.03
2018-06-14T18:24:59.459Z,97254.12
2018-06-14T18:27:28.523Z,97257.66
2018-06-14T18:29:57.551Z,97258.88
2018-06-14T18:32:26.256Z,97267.06
2018-06-14T18:34:54.956Z,97268.38
2018-06-14T18:37:23.588Z,97268.41
2018-06-14T18:40:16.028Z,97267.94
2018-06-14T18:43:01.896Z,97276.75
2018-06-14T18:45:49.379Z,97277.23
2018-06-14T18:48:40.203Z,97280.52
2018-06-14T18:51:09.999Z,97284.16
2018-06-14T18:53:38.792Z,97281.42
2018-06-14T18:56:07.465Z,97289.71
2018-06-14T18:58:36.139Z,97287.37
2018-06-14T19:01:04.804Z,97288.09
2018-06-14T19:03:33.547Z,97284.09
2018-06-14T19:06:02.185Z,97289.00
2018-06-14T19:08:30.872Z,97294.02
2018-06-14T19:11:00.100Z,97294.00
2018-06-14T19:13:28.775Z,97295.59
2018-06-14T19:15:57.683Z,97299.99
2018-06-14T19:18:26.323Z,97308.63
2018-06-14T19:20:55.265Z,97311.77
2018-06-14T19:23:24.066Z,97307.29
2018-06-14T19:25:52.836Z,97301.77
2018-06-14T19:28:22.060Z,97310.00
2018-06-14T19:30:50.640Z,97311.03
2018-06-14T19:33:19.472Z,97315.08
2018-06-14T19:35:48.245Z,97323.42
2018-06-14T19:38:17.055Z,97325.87
2018-06-14T19:40:46.190Z,97327.83
2018-06-14T19:43:15.008Z,97334.80
2018-06-14T19:45:44.670Z,97332.32
2018-06-14T19:48:14.096Z,97338.24
2018-06-14T19:50:43.113Z,97342.86
2018-06-14T19:53:12.366Z,97344.89
2018-06-14T19:55:41.683Z,97357.02
2018-06-14T19:58:10.391Z,97357.32
2018-06-14T20:00:39.269Z,97365.09
2018-06-14T20:03:08.357Z,97368.78
2018-06-14T20:05:37.981Z,97362.78
2018-06-14T20:08:09.029Z,97364.84
2018-06-14T20:10:37.779Z,97364.68
2018-06-14T20:13:08.215Z,97364.42
2018-06-14T20:15:38.417Z,97364.47
2018-06-14T20:18:07.224Z,97363.91
2018-06-14T20:20:36.438Z,97365.55
2018-06-14T20:23:06.284Z,97373.72
2018-06-14T20:25:36.070Z,97377.37
2018-06-14T20:28:04.979Z,97373.98
2018-06-14T20:30:33.834Z,97378.10
2018-06-14T20:33:02.480Z,97378.75
2018-06-14T20:35:31.392Z,97378.66
2018-06-14T20:38:00.062Z,97378.58
2018-06-14T20:40:29.193Z,97374.56
2018-06-14T20:42:57.803Z,97382.64
2018-06-14T20:45:26.472Z,97377.06
2018-06-14T20:47:55.063Z,97384.12
2018-06-14T20:50:23.752Z,97384.38
2018-06-14T20:52:52.460Z,97385.39
2018-06-14T20:55:21.048Z,97387.16
2018-06-14T20:57:49.684Z,97393.58
2018-06-14T21:00:18.269Z,97389.04
2018-06-14T21:02:46.820Z,97389.23
2018-06-14T21:05:15.754Z,97397.29
2018-06-14T21:07:44.347Z,97387.76
2018-06-14T21:10:12.895Z,97398.05
2018-06-14T21:12:41.530Z,97404.08
2018-06-14T21:15:10.096Z,97402.09
2018-06-14T21:17:39.047Z,97402.28
2018-06-14T21:20:07.656Z,97405.40
2018-06-14T21:22:36.338Z,97407.88
2018-06-14T21:25:05.020Z,97413.83
2018-06-14T21:27:33.577Z,97423.05
2018-06-14T21:30:02.299Z,97418.15
2018-06-14T21:32:30.889Z,97426.73
2018-06-14T21:34:59.564Z,97425.06
2018-06-14T21:37:28.156Z,97421.57
2018-06-14T21:39:56.806Z,97421.85
2018-06-14T21:42:25.424Z,97420.75
2018-06-14T21:44:54.201Z,97416.66
2018-06-14T21:47:22.784Z,97416.64
2018-06-14T21:49:55.160Z,97423.14
2018-06-14T21:52:23.741Z,97421.34
2018-06-14T21:54:52.527Z,97414.64
2018-06-14T21:57:21.116Z,97421.22
2018-06-14T21:59:49.682Z,97418.03
2018-06-14T22:02:18.379Z,97415.84
2018-06-14T22:04:47.007Z,97415.92
2018-06-14T22:07:15.702Z,97419.41
2018-06-14T22:09:45.361Z,97422.04
2018-06-14T22:12:14.250Z,97422.14
2018-06-14T22:14:42.884Z,97420.47
2018-06-14T22:17:11.933Z,97423.42
2018-06-14T22:19:40.895Z,97424.22
2018-06-14T22:22:09.504Z,97421.05
2018-06-14T22:24:38.412Z,97427.05
2018-06-14T22:27:07.052Z,97424.50
2018-06-14T22:29:35.592Z,97429.15
2018-06-14T22:32:04.201Z,97426.41
2018-06-14T22:34:43.920Z,97423.31
2018-06-14T22:37:12.503Z,97421.09
2018-06-14T22:39:41.075Z,97420.55
2018-06-14T22:42:09.859Z,97418.55
2018-06-14T22:44:38.416Z,97415.25
2018-06-14T22:47:07.276Z,97416.98
2018-06-14T22:49:35.835Z,97421.02
2018-06-14T22:52:47.424Z,97420.19
2018-06-14T22:55:15.975Z,97412.05
2018-06-14T22:57:44.840Z,97404.20
2018-06-14T23:00:49.984Z,97402.00
2018-06-14T23:03:18.709Z,97405.70
2018-06-14T23:05:47.264Z,97404.35
2018-06-14T23:08:15.890Z,97396.94
2018-06-14T23:10:55.857Z,97393.83
2018-06-14T23:13:24.424Z,97395.38
2018-06-14T23:15:53.096Z,97394.70
2018-06-14T23:18:21.685Z,97390.38
2018-06-14T23:20:50.417Z,97393.34
2018-06-14T23:23:19.067Z,97389.58
2018-06-14T23:25:47.822Z,97395.75
2018-06-14T23:28:16.489Z,97390.92
2018-06-14T23:30:45.194Z,97395.52
2018-06-14T23:33:13.863Z,97395.80
2018-06-14T23:35:42.603Z,97389.52
2018-06-14T23:38:11.261Z,97388.27
2018-06-14T23:40:39.937Z,97384.09
2018-06-14T23:43:08.827Z,97389.14
2018-06-14T23:45:37.514Z,97389.98
2018-06-14T23:48:06.724Z,97382.22
2018-06-14T23:50:36.780Z,97390.81
2018-06-14T23:53:05.430Z,97379.70
2018-06-14T23:55:34.107Z,97382.98
2018-06-14T23:58:02.787Z,97381.48
